createdAt,value
2022-12-26T00:00:27.731Z,32.72
2022-12-26T00:02:54.587Z,26.45
2022-12-26T00:05:21.217Z,25.15
2022-12-26T00:07:50.077Z,19.40
2022-12-26T00:10:16.584Z,17.33
2022-12-26T00:12:43.036Z,12.85
2022-12-26T00:15:12.061Z,12.10
2022-12-26T00:17:38.532Z,12.43
2022-12-26T00:20:07.883Z,13.90
2022-12-26T00:22:34.517Z,15.65
2022-12-26T00:25:01.032Z,15.18
2022-12-26T00:27:27.506Z,13.38
2022-12-26T00:29:53.944Z,11.90
2022-12-26T00:32:20.438Z,12.90
2022-12-26T00:34:46.935Z,11.98
2022-12-26T00:37:15.708Z,10.15
2022-12-26T00:39:42.147Z,9.77
2022-12-26T00:42:08.571Z,9.13
2022-12-26T00:44:35.030Z,14.18
2022-12-26T00:47:01.552Z,9.02
2022-12-26T00:49:28.049Z,8.82
2022-12-26T00:51:56.995Z,11.27
2022-12-26T00:54:23.550Z,11.48
2022-12-26T00:56:50.004Z,8.02
2022-12-26T00:59:18.885Z,6.90
2022-12-26T01:01:45.571Z,6.28
2022-12-26T01:04:12.114Z,8.50
2022-12-26T01:06:38.599Z,5.75
2022-12-26T01:09:05.052Z,6.72
2022-12-26T01:11:40.592Z,5.65
2022-12-26T01:14:15.525Z,4.95
2022-12-26T01:16:43.846Z,6.70
2022-12-26T01:19:12.116Z,4.88
2022-12-26T01:21:38.832Z,5.15
2022-12-26T01:24:06.431Z,5.05
2022-12-26T01:26:32.930Z,5.13
2022-12-26T01:28:59.354Z,5.78
2022-12-26T01:31:25.885Z,6.40
2022-12-26T01:33:52.378Z,5.13
2022-12-26T01:36:18.944Z,4.75
2022-12-26T01:38:46.259Z,6.32
2022-12-26T01:41:19.863Z,8.20
2022-12-26T01:43:56.315Z,5.95
2022-12-26T01:46:47.830Z,5.28
2022-12-26T01:49:34.647Z,7.00
2022-12-26T01:52:06.648Z,5.13
2022-12-26T01:54:42.605Z,5.47
2022-12-26T01:57:32.326Z,6.63
2022-12-26T02:00:01.315Z,8.82
2022-12-26T02:02:29.822Z,9.32
2022-12-26T02:05:16.374Z,8.43
2022-12-26T02:07:45.788Z,8.30
2022-12-26T02:10:21.645Z,6.97
2022-12-26T02:12:48.606Z,4.95
2022-12-26T02:15:17.129Z,6.68
2022-12-26T02:17:44.426Z,4.88
2022-12-26T02:20:17.235Z,5.88
2022-12-26T02:22:55.623Z,8.00
2022-12-26T02:26:07.219Z,5.15
2022-12-26T02:28:58.626Z,7.85
2022-12-26T02:31:50.324Z,6.30
2022-12-26T02:34:22.950Z,5.70
2022-12-26T02:36:58.518Z,6.78
2022-12-26T02:39:52.047Z,5.85
2022-12-26T02:43:06.888Z,7.20
2022-12-26T02:46:02.204Z,8.23
2022-12-26T02:48:51.661Z,12.77
2022-12-26T02:51:43.163Z,11.68
2022-12-26T02:54:41.903Z,6.88
2022-12-26T02:57:35.010Z,10.55
2022-12-26T03:00:39.671Z,7.28
2022-12-26T03:03:36.783Z,5.30
2022-12-26T03:06:32.675Z,6.25
2022-12-26T03:09:28.703Z,6.35
2022-12-26T03:12:19.509Z,4.28
2022-12-26T03:14:54.094Z,5.93
2022-12-26T03:17:35.735Z,7.60
2022-12-26T03:20:16.524Z,5.38
2022-12-26T03:22:57.455Z,4.47
2022-12-26T03:25:48.776Z,5.28
2022-12-26T03:28:16.342Z,6.50
2022-12-26T03:30:52.204Z,5.40
2022-12-26T03:33:42.016Z,4.28
2022-12-26T03:36:13.670Z,4.80
2022-12-26T03:38:57.711Z,5.05
2022-12-26T03:41:54.930Z,5.25
2022-12-26T03:45:19.366Z,4.72
2022-12-26T03:48:24.212Z,6.50
2022-12-26T03:51:18.137Z,6.82
2022-12-26T03:54:19.746Z,4.68
2022-12-26T03:57:11.379Z,6.15
2022-12-26T04:00:07.314Z,4.85
2022-12-26T04:02:55.464Z,7.15
2022-12-26T04:05:40.790Z,5.53
2022-12-26T04:08:49.385Z,5.05
2022-12-26T04:11:37.223Z,16.00
2022-12-26T04:14:44.997Z,5.97
2022-12-26T04:17:45.232Z,5.68
2022-12-26T04:20:45.377Z,5.93
2022-12-26T04:23:40.148Z,6.00
2022-12-26T04:26:40.278Z,10.98
2022-12-26T04:29:25.564Z,5.82
2022-12-26T04:32:42.221Z,7.38
2022-12-26T04:35:39.830Z,6.78
2022-12-26T04:38:26.505Z,6.43
2022-12-26T04:41:18.444Z,5.78
2022-12-26T04:44:24.668Z,5.65
2022-12-26T04:46:53.435Z,5.70
2022-12-26T04:49:40.563Z,6.40
2022-12-26T04:52:10.183Z,3.75
2022-12-26T04:54:36.997Z,4.85
2022-12-26T04:57:03.992Z,9.45
2022-12-26T04:59:30.570Z,8.05
2022-12-26T05:02:15.850Z,18.40
2022-12-26T05:05:01.007Z,10.13
2022-12-26T05:07:48.971Z,9.68
2022-12-26T05:10:19.179Z,10.80
2022-12-26T05:12:46.239Z,12.57
2022-12-26T05:15:12.843Z,10.43
2022-12-26T05:17:57.980Z,11.82
2022-12-26T05:20:43.295Z,12.60
2022-12-26T05:23:44.159Z,11.30
2022-12-26T05:26:41.795Z,10.73
2022-12-26T05:29:08.567Z,8.73
2022-12-26T05:31:36.893Z,6.82
2022-12-26T05:34:08.149Z,7.20
2022-12-26T05:36:41.459Z,6.97
2022-12-26T05:39:08.939Z,6.80
2022-12-26T05:41:40.350Z,14.63
2022-12-26T05:44:08.142Z,15.68
2022-12-26T05:46:35.413Z,10.07
2022-12-26T05:49:02.652Z,10.50
2022-12-26T05:51:29.380Z,12.27
2022-12-26T05:53:55.815Z,17.17
2022-12-26T05:56:22.347Z,9.73
2022-12-26T05:58:58.053Z,10.80
2022-12-26T06:01:26.045Z,13.93
2022-12-26T06:03:54.766Z,17.10
2022-12-26T06:06:23.349Z,17.27
2022-12-26T06:08:54.565Z,21.27
2022-12-26T06:11:21.870Z,16.23
2022-12-26T06:13:50.882Z,11.73
2022-12-26T06:16:18.715Z,16.70
2022-12-26T06:18:45.627Z,10.10
2022-12-26T06:21:14.989Z,9.40
2022-12-26T06:23:41.812Z,7.43
2022-12-26T06:26:10.251Z,6.60
2022-12-26T06:28:37.010Z,8.73
2022-12-26T06:31:05.998Z,6.35
2022-12-26T06:33:32.932Z,7.68
2022-12-26T06:36:08.209Z,8.70
2022-12-26T06:38:35.149Z,16.50
2022-12-26T06:41:04.037Z,9.93
2022-12-26T06:43:30.488Z,9.10
2022-12-26T06:45:58.420Z,6.97
2022-12-26T06:48:25.377Z,6.22
2022-12-26T06:50:54.111Z,6.57
2022-12-26T06:53:21.709Z,7.70
2022-12-26T06:55:48.468Z,10.90
2022-12-26T06:58:15.647Z,9.63
2022-12-26T07:00:42.170Z,7.32
2022-12-26T07:03:08.826Z,8.80
2022-12-26T07:05:41.281Z,9.32
2022-12-26T07:08:08.159Z,7.13
2022-12-26T07:10:36.309Z,9.27
2022-12-26T07:13:02.896Z,10.68
2022-12-26T07:15:29.396Z,10.48
2022-12-26T07:17:56.018Z,7.28
2022-12-26T07:20:22.493Z,8.85
2022-12-26T07:22:49.010Z,8.23
2022-12-26T07:25:15.671Z,5.38
2022-12-26T07:27:42.154Z,7.22
2022-12-26T07:30:09.311Z,5.32
2022-12-26T07:32:35.759Z,4.47
2022-12-26T07:35:02.258Z,4.50
2022-12-26T07:37:28.733Z,6.15
2022-12-26T07:39:58.863Z,13.60
2022-12-26T07:42:26.240Z,8.07
2022-12-26T07:44:52.790Z,7.38
2022-12-26T07:47:19.272Z,6.50
2022-12-26T07:49:45.789Z,9.40
2022-12-26T07:52:12.362Z,9.00
2022-12-26T07:54:40.944Z,11.35
2022-12-26T07:57:46.414Z,17.30
2022-12-26T07:59:54.086Z,24.58
2022-12-26T08:02:20.839Z,21.13
2022-12-26T08:04:47.536Z,30.27
2022-12-26T08:07:14.044Z,39.45
2022-12-26T08:09:42.891Z,38.15
2022-12-26T08:12:09.447Z,35.80
2022-12-26T08:14:37.664Z,41.17
2022-12-26T08:17:04.256Z,38.90
2022-12-26T08:19:30.775Z,40.50
2022-12-26T08:21:57.397Z,37.22
2022-12-26T08:24:24.234Z,31.25
2022-12-26T08:26:50.756Z,33.47
2022-12-26T08:29:17.306Z,33.90
2022-12-26T08:31:43.803Z,51.50
2022-12-26T08:34:10.499Z,54.15
2022-12-26T08:36:38.162Z,51.83
2022-12-26T08:39:04.962Z,37.88
2022-12-26T08:41:31.561Z,38.60
2022-12-26T08:46:45.881Z,29.02
2022-12-26T08:49:12.549Z,29.83
2022-12-26T08:51:41.597Z,28.30
2022-12-26T08:54:08.139Z,26.42
2022-12-26T08:56:36.984Z,22.55
2022-12-26T08:59:03.687Z,24.80
2022-12-26T09:01:31.554Z,24.55
2022-12-26T09:04:02.569Z,24.40
2022-12-26T09:06:31.940Z,19.55
2022-12-26T09:08:59.514Z,18.85
2022-12-26T09:11:26.997Z,15.52
2022-12-26T09:13:53.948Z,10.73
2022-12-26T09:16:26.080Z,11.82
2022-12-26T09:18:59.434Z,9.07
2022-12-26T09:21:26.421Z,7.35
2022-12-26T09:24:01.296Z,6.30
2022-12-26T09:26:30.564Z,5.35
2022-12-26T09:28:57.168Z,5.47
2022-12-26T09:31:26.260Z,6.70
2022-12-26T09:33:53.817Z,5.70
2022-12-26T09:36:26.267Z,9.80
2022-12-26T09:38:54.504Z,5.68
2022-12-26T09:41:32.897Z,7.93
2022-12-26T09:44:24.836Z,8.10
2022-12-26T09:47:00.382Z,5.13
2022-12-26T09:49:38.275Z,7.53
2022-12-26T09:52:15.006Z,4.35
2022-12-26T09:54:49.099Z,5.38
2022-12-26T09:57:18.798Z,4.63
2022-12-26T10:00:05.431Z,4.13
2022-12-26T10:02:32.959Z,3.90
2022-12-26T10:04:59.532Z,3.97
2022-12-26T10:07:38.047Z,5.93
2022-12-26T10:10:08.778Z,3.58
2022-12-26T10:13:18.446Z,4.55
2022-12-26T10:15:57.419Z,5.00
2022-12-26T10:19:01.774Z,5.10
2022-12-26T10:21:59.922Z,5.18
2022-12-26T10:24:33.326Z,6.22
2022-12-26T10:27:14.050Z,9.57
2022-12-26T10:29:48.285Z,6.68
2022-12-26T10:32:27.905Z,6.20
2022-12-26T10:34:54.954Z,8.02
2022-12-26T10:37:30.853Z,8.88
2022-12-26T10:40:00.187Z,8.68
2022-12-26T10:42:34.531Z,10.93
2022-12-26T10:45:01.899Z,6.75
2022-12-26T10:47:42.860Z,8.15
2022-12-26T10:50:27.965Z,10.70
2022-12-26T10:52:55.894Z,5.63
2022-12-26T10:55:31.714Z,12.55
2022-12-26T10:58:09.719Z,8.05
2022-12-26T11:00:36.214Z,4.70
2022-12-26T11:03:17.261Z,4.60
2022-12-26T11:06:11.150Z,5.63
2022-12-26T11:11:24.806Z,5.72
2022-12-26T11:14:02.305Z,3.53
2022-12-26T11:16:33.874Z,2.85
2022-12-26T11:19:00.437Z,3.92
2022-12-26T11:21:29.573Z,3.67
2022-12-26T11:24:08.248Z,5.20
2022-12-26T11:26:34.795Z,6.00
2022-12-26T11:29:33.811Z,3.42
2022-12-26T11:32:02.354Z,3.80
2022-12-26T11:34:46.088Z,6.20
2022-12-26T11:37:29.092Z,3.83
2022-12-26T11:39:57.046Z,6.38
2022-12-26T11:42:25.704Z,5.78
2022-12-26T11:44:57.286Z,4.70
2022-12-26T11:47:28.160Z,5.28
2022-12-26T11:50:04.383Z,5.25
2022-12-26T11:52:52.341Z,3.85
2022-12-26T11:55:43.099Z,3.20
2022-12-26T11:58:09.591Z,4.90
2022-12-26T12:00:41.665Z,4.32
2022-12-26T12:03:14.854Z,3.45
2022-12-26T12:06:06.093Z,3.95
2022-12-26T12:08:52.253Z,5.10
2022-12-26T12:11:35.132Z,2.67
2022-12-26T12:14:54.778Z,2.78
2022-12-26T12:17:21.895Z,4.57
2022-12-26T12:20:03.775Z,3.78
2022-12-26T12:23:06.931Z,8.30
2022-12-26T12:25:56.577Z,11.05
2022-12-26T12:28:43.352Z,6.18
2022-12-26T12:31:15.863Z,7.55
2022-12-26T12:33:48.828Z,8.50
2022-12-26T12:36:27.675Z,8.77
2022-12-26T12:39:19.567Z,6.95
2022-12-26T12:42:09.786Z,8.13
2022-12-26T12:45:04.391Z,7.57
2022-12-26T12:48:08.549Z,7.85
2022-12-26T12:50:58.787Z,11.73
2022-12-26T12:53:46.966Z,16.45
2022-12-26T12:56:42.828Z,18.88
2022-12-26T12:59:48.025Z,11.40
2022-12-26T13:02:28.121Z,8.82
2022-12-26T13:05:04.709Z,18.83
2022-12-26T13:07:46.983Z,15.30
2022-12-26T13:10:24.312Z,11.60
2022-12-26T13:12:52.988Z,9.77
2022-12-26T13:15:42.363Z,10.38
2022-12-26T13:18:20.371Z,9.93
2022-12-26T13:20:53.444Z,8.45
2022-12-26T13:23:47.853Z,7.45
2022-12-26T13:26:25.271Z,9.27
2022-12-26T13:29:15.096Z,9.05
2022-12-26T13:31:44.696Z,10.52
2022-12-26T13:34:16.903Z,10.05
2022-12-26T13:36:49.155Z,8.38
2022-12-26T13:39:27.889Z,9.95
2022-12-26T13:42:18.031Z,10.15
2022-12-26T13:44:48.809Z,7.85
2022-12-26T13:47:37.384Z,7.00
2022-12-26T13:50:41.693Z,9.48
2022-12-26T13:53:27.078Z,7.70
2022-12-26T13:55:56.639Z,7.20
2022-12-26T13:58:38.463Z,5.20
2022-12-26T14:01:05.059Z,7.03
2022-12-26T14:03:59.930Z,4.43
2022-12-26T14:06:38.858Z,5.05
2022-12-26T14:09:32.835Z,9.57
2022-12-26T14:12:30.500Z,5.40
2022-12-26T14:15:15.437Z,8.05
2022-12-26T14:18:03.378Z,7.68
2022-12-26T14:20:52.771Z,24.10
2022-12-26T14:23:26.182Z,15.48
2022-12-26T14:26:01.871Z,11.73
2022-12-26T14:28:36.985Z,12.35
2022-12-26T14:31:18.900Z,10.82
2022-12-26T14:33:45.385Z,9.55
2022-12-26T14:36:11.835Z,9.25
2022-12-26T14:39:11.376Z,9.32
2022-12-26T14:42:25.148Z,12.90
2022-12-26T14:44:57.323Z,6.88
2022-12-26T14:47:39.374Z,8.32
2022-12-26T14:50:37.103Z,5.15
2022-12-26T14:53:29.774Z,4.43
2022-12-26T14:56:01.233Z,5.63
2022-12-26T14:58:38.951Z,3.80
2022-12-26T15:01:20.894Z,3.85
2022-12-26T15:03:56.465Z,7.10
2022-12-26T15:06:41.084Z,8.80
2022-12-26T15:09:29.502Z,6.47
2022-12-26T15:12:33.893Z,6.97
2022-12-26T15:15:06.167Z,8.20
2022-12-26T15:17:53.980Z,6.03
2022-12-26T15:20:42.103Z,4.75
2022-12-26T15:23:39.609Z,5.93
2022-12-26T15:26:30.549Z,4.93
2022-12-26T15:29:35.068Z,3.03
2022-12-26T15:32:20.727Z,4.00
2022-12-26T15:34:59.882Z,5.32
2022-12-26T15:37:38.480Z,5.25
2022-12-26T15:40:04.924Z,4.55
2022-12-26T15:42:53.537Z,5.63
2022-12-26T15:45:35.974Z,2.63
2022-12-26T15:48:21.092Z,6.15
2022-12-26T15:51:25.036Z,5.65
2022-12-26T15:53:58.343Z,3.40
2022-12-26T15:56:33.923Z,3.15
2022-12-26T15:59:21.716Z,4.72
2022-12-26T16:01:53.612Z,3.70
2022-12-26T16:04:40.680Z,5.18
2022-12-26T16:07:14.300Z,14.48
2022-12-26T16:09:43.358Z,8.05
2022-12-26T16:12:25.124Z,7.65
2022-12-26T16:15:10.104Z,5.85
2022-12-26T16:17:38.297Z,7.03
2022-12-26T16:20:48.935Z,5.75
2022-12-26T16:23:20.659Z,4.05
2022-12-26T16:25:53.206Z,6.30
2022-12-26T16:28:28.990Z,4.20
2022-12-26T16:30:57.210Z,4.75
2022-12-26T16:33:23.816Z,4.72
2022-12-26T16:35:54.878Z,6.80
2022-12-26T16:40:55.667Z,5.53
2022-12-26T16:43:26.399Z,3.65
2022-12-26T16:45:58.718Z,14.68
2022-12-26T16:48:28.173Z,6.20
2022-12-26T16:51:01.201Z,3.15
2022-12-26T16:53:40.008Z,3.38
2022-12-26T16:56:29.565Z,1.75
2022-12-26T16:59:21.076Z,7.72
2022-12-26T17:01:54.824Z,3.88
2022-12-26T17:06:56.498Z,2.20
2022-12-26T17:09:27.242Z,5.22
2022-12-26T17:11:58.923Z,3.58
2022-12-26T17:14:30.601Z,4.13
2022-12-26T17:17:03.956Z,1.77
2022-12-26T17:19:36.275Z,2.15
2022-12-26T17:22:14.813Z,2.92
2022-12-26T17:24:42.508Z,2.15
2022-12-26T17:27:23.669Z,3.08
2022-12-26T17:30:01.355Z,2.97
2022-12-26T17:32:44.129Z,2.17
2022-12-26T17:35:13.345Z,3.28
2022-12-26T17:37:40.781Z,1.48
2022-12-26T17:40:30.534Z,2.30
2022-12-26T17:43:06.174Z,2.03
2022-12-26T17:45:32.860Z,1.42
2022-12-26T17:48:02.119Z,2.00
2022-12-26T17:50:38.246Z,1.40
2022-12-26T17:53:22.578Z,1.80
2022-12-26T17:55:50.250Z,1.45
2022-12-26T17:58:16.981Z,1.10
2022-12-26T18:00:48.734Z,1.02
2022-12-26T18:03:15.319Z,1.65
2022-12-26T18:05:42.356Z,1.25
2022-12-26T18:08:24.923Z,2.38
2022-12-26T18:10:51.377Z,2.22
2022-12-26T18:13:17.930Z,2.40
2022-12-26T18:15:47.020Z,2.13
2022-12-26T18:18:24.370Z,1.42
2022-12-26T18:20:52.011Z,1.35
2022-12-26T18:23:18.590Z,1.98
2022-12-26T18:25:52.782Z,1.02
2022-12-26T18:28:21.429Z,0.82
2022-12-26T18:30:48.029Z,2.85
2022-12-26T18:33:14.822Z,1.42
2022-12-26T18:35:42.880Z,1.13
2022-12-26T18:38:16.124Z,0.98
2022-12-26T18:40:45.330Z,1.58
2022-12-26T18:43:15.094Z,1.77
2022-12-26T18:45:42.862Z,3.38
2022-12-26T18:48:13.916Z,2.63
2022-12-26T18:50:43.836Z,1.25
2022-12-26T18:53:11.553Z,1.92
2022-12-26T18:55:38.387Z,1.27
2022-12-26T18:58:05.437Z,0.70
2022-12-26T19:00:32.372Z,0.95
2022-12-26T19:02:58.926Z,0.63
2022-12-26T19:05:27.486Z,0.82
2022-12-26T19:07:54.951Z,1.70
2022-12-26T19:10:24.012Z,0.77
2022-12-26T19:12:51.116Z,0.60
2022-12-26T19:15:18.502Z,1.50
2022-12-26T19:17:49.839Z,1.20
2022-12-26T19:20:26.488Z,1.25
2022-12-26T19:22:54.268Z,1.73
2022-12-26T19:25:22.327Z,1.38
2022-12-26T19:27:51.153Z,1.20
2022-12-26T19:30:21.903Z,1.73
2022-12-26T19:32:49.110Z,1.98
2022-12-26T19:35:16.024Z,1.25
2022-12-26T19:37:42.916Z,1.17
2022-12-26T19:40:10.696Z,1.70
2022-12-26T19:42:38.347Z,1.10
2022-12-26T19:45:06.630Z,1.63
2022-12-26T19:47:34.408Z,1.35
2022-12-26T19:50:01.284Z,0.80
2022-12-26T19:52:28.191Z,1.67
2022-12-26T19:54:54.725Z,1.50
2022-12-26T19:57:23.229Z,1.88
2022-12-26T19:59:50.615Z,2.35
2022-12-26T20:02:19.517Z,1.95
2022-12-26T20:04:46.252Z,0.70
2022-12-26T20:07:12.841Z,0.80
2022-12-26T20:09:39.496Z,1.70
2022-12-26T20:12:06.492Z,3.03
2022-12-26T20:14:33.040Z,1.73
2022-12-26T20:17:08.608Z,1.67
2022-12-26T20:19:36.220Z,2.72
2022-12-26T20:22:03.509Z,1.08
2022-12-26T20:24:30.004Z,1.83
2022-12-26T20:26:56.562Z,1.10
2022-12-26T20:29:23.296Z,1.23
2022-12-26T20:31:50.134Z,3.25
2022-12-26T20:34:19.207Z,0.93
2022-12-26T20:36:45.693Z,1.65
2022-12-26T20:39:18.185Z,1.73
2022-12-26T20:41:45.345Z,1.30
2022-12-26T20:44:13.647Z,0.57
2022-12-26T20:46:41.469Z,0.90
2022-12-26T20:49:08.117Z,0.70
2022-12-26T20:51:38.554Z,1.25
2022-12-26T20:54:07.052Z,0.90
2022-12-26T20:56:34.745Z,0.70
2022-12-26T20:59:01.303Z,1.25
2022-12-26T21:01:28.812Z,5.20
2022-12-26T21:03:56.820Z,4.40
2022-12-26T21:06:35.485Z,2.53
2022-12-26T21:09:03.565Z,1.83
2022-12-26T21:11:33.318Z,1.85
2022-12-26T21:14:06.810Z,0.82
2022-12-26T21:16:37.123Z,2.60
2022-12-26T21:19:08.014Z,0.90
2022-12-26T21:21:40.743Z,1.13
2022-12-26T21:24:11.575Z,1.27
2022-12-26T21:26:40.293Z,1.80
2022-12-26T21:29:10.957Z,2.05
2022-12-26T21:31:38.188Z,1.02
2022-12-26T21:34:05.441Z,1.85
2022-12-26T21:36:39.346Z,0.57
2022-12-26T21:39:10.284Z,1.05
2022-12-26T21:41:39.417Z,0.88
2022-12-26T21:44:05.932Z,0.73
2022-12-26T21:46:32.491Z,3.50
2022-12-26T21:49:00.706Z,2.30
2022-12-26T21:51:28.790Z,1.45
2022-12-26T21:54:15.242Z,2.53
2022-12-26T21:56:41.758Z,1.08
2022-12-26T21:59:27.889Z,1.88
2022-12-26T22:01:54.407Z,0.90
2022-12-26T22:04:20.946Z,1.15
2022-12-26T22:06:49.637Z,1.13
2022-12-26T22:09:17.291Z,2.40
2022-12-26T22:12:02.906Z,0.93
2022-12-26T22:14:29.787Z,0.98
2022-12-26T22:16:56.900Z,1.20
2022-12-26T22:19:24.572Z,1.70
2022-12-26T22:21:59.650Z,0.47
2022-12-26T22:24:26.131Z,0.20
2022-12-26T22:26:52.717Z,0.55
2022-12-26T22:29:19.188Z,1.33
2022-12-26T22:31:45.709Z,0.30
2022-12-26T22:34:14.111Z,0.52
2022-12-26T22:36:41.240Z,0.50
2022-12-26T22:39:08.015Z,3.70
2022-12-26T22:41:34.658Z,0.68
2022-12-26T22:44:01.264Z,0.35
2022-12-26T22:46:27.836Z,0.40
2022-12-26T22:48:54.383Z,2.97
2022-12-26T22:51:23.222Z,0.75
2022-12-26T22:53:53.126Z,1.05
2022-12-26T22:56:19.652Z,0.45
2022-12-26T22:58:52.459Z,0.30
2022-12-26T23:01:19.710Z,1.83
2022-12-26T23:03:51.042Z,1.27
2022-12-26T23:06:17.706Z,1.70
2022-12-26T23:08:44.411Z,2.28
2022-12-26T23:11:11.230Z,0.40
2022-12-26T23:13:38.810Z,2.08
2022-12-26T23:16:13.362Z,1.73
2022-12-26T23:19:09.162Z,0.55
2022-12-26T23:21:41.984Z,1.52
2022-12-26T23:24:12.759Z,0.50
2022-12-26T23:26:43.519Z,1.58
2022-12-26T23:29:33.890Z,2.25
2022-12-26T23:32:01.019Z,0.57
2022-12-26T23:34:30.713Z,0.95
2022-12-26T23:36:57.299Z,1.08
2022-12-26T23:39:23.950Z,2.25
2022-12-26T23:41:50.544Z,0.40
2022-12-26T23:44:17.105Z,1.02
2022-12-26T23:46:44.596Z,1.73
2022-12-26T23:49:15.293Z,0.45
2022-12-26T23:51:42.927Z,0.45
2022-12-26T23:54:10.342Z,1.95
2022-12-26T23:56:37.443Z,0.60
2022-12-26T23:59:04.814Z,0.52
